Time;durP1;ratioP1;P1;durP2;ratioP2;P2;SDS_P1;SDS_P2;PMS_P1;PMS_P2;Temp;Humidity;BMP_temperature;BMP_pressure;BME280_temperature;BME280_humidity;BME280_pressure;Samples;Min_cycle;Max_cycle;Signal;HPM_P1;HPM_P2
2022/02/27 00:00:52;;;;;;;101.80;46.70;;;;;;;-2.52;76.70;101760.75;215525;1274;141609;-67
2022/02/27 00:05:56;;;;;;;88.50;44.20;;;;;;;-2.58;76.43;101767.42;214228;1274;142138;-72
2022/02/27 00:10:59;;;;;;;81.20;46.70;;;;;;;-2.63;76.59;101765.13;215846;1274;155245;-73
2022/02/27 00:16:03;;;;;;;82.20;42.90;;;;;;;-2.63;76.61;101766.53;215808;1274;140819;-72
2022/02/27 00:21:06;;;;;;;85.20;44.20;;;;;;;-2.64;76.48;101767.34;215184;1274;140531;-71
2022/02/27 00:26:10;;;;;;;75.70;38.70;;;;;;;-2.69;76.48;101770.94;213952;1274;151631;-72
2022/02/27 00:31:14;;;;;;;77.70;36.00;;;;;;;-2.74;76.80;101769.85;213744;1276;141771;-71
2022/02/27 00:36:18;;;;;;;89.90;42.60;;;;;;;-2.77;76.90;101767.67;215037;1274;143539;-70
2022/02/27 00:41:21;;;;;;;79.90;41.70;;;;;;;-2.79;77.19;101765.99;214558;1274;142921;-71
2022/02/27 00:46:28;;;;;;;88.80;42.30;;;;;;;-2.80;77.05;101767.86;212988;1274;141622;-71
2022/02/27 00:51:33;;;;;;;91.10;42.80;;;;;;;-2.82;77.40;101773.70;213834;1274;141364;-72
2022/02/27 00:56:38;;;;;;;76.10;36.20;;;;;;;-2.77;77.72;101773.21;214165;1274;140963;-70
2022/02/27 01:01:43;;;;;;;88.20;44.60;;;;;;;-2.77;77.56;101766.46;213820;1276;140774;-69
2022/02/27 01:06:47;;;;;;;101.00;47.40;;;;;;;-2.73;77.77;101769.31;213615;1274;140821;-67
2022/02/27 01:11:52;;;;;;;96.10;46.00;;;;;;;-2.67;77.87;101767.48;213323;1274;141022;-68
2022/02/27 01:17:01;;;;;;;86.60;43.40;;;;;;;-2.62;78.07;101764.02;213999;1274;140443;-70
2022/02/27 01:22:07;;;;;;;90.50;45.50;;;;;;;-2.60;78.03;101760.27;214675;1274;140921;-69
2022/02/27 01:27:11;;;;;;;90.20;42.10;;;;;;;-2.56;78.25;101760.31;214269;1277;141695;-72
2022/02/27 01:32:16;;;;;;;100.10;53.70;;;;;;;-2.49;78.12;101756.78;213651;1274;142989;-69
2022/02/27 01:37:20;;;;;;;115.50;53.10;;;;;;;-2.45;78.26;101766.42;214938;1274;142050;-69
2022/02/27 01:42:26;;;;;;;119.70;56.60;;;;;;;-2.42;78.45;101765.81;213130;1274;141750;-68
2022/02/27 01:47:31;;;;;;;110.80;50.00;;;;;;;-2.39;78.50;101760.91;214843;1274;141788;-69
2022/02/27 01:52:35;;;;;;;95.30;46.70;;;;;;;-2.40;78.47;101755.27;214989;1274;162440;-69
2022/02/27 01:57:42;;;;;;;106.40;53.50;;;;;;;-2.44;78.38;101752.89;214756;1274;141030;-70
2022/02/27 02:02:47;;;;;;;113.70;58.00;;;;;;;-2.46;78.33;101748.89;215524;1274;142192;-71
2022/02/27 02:07:52;;;;;;;111.70;57.70;;;;;;;-2.43;78.64;101746.20;215934;1274;141497;-71
2022/02/27 02:12:57;;;;;;;146.10;66.90;;;;;;;-2.35;78.85;101742.77;215626;1274;141266;-70
2022/02/27 02:18:02;;;;;;;127.90;62.80;;;;;;;-2.27;78.93;101742.55;216002;1274;141854;-71
2022/02/27 02:23:06;;;;;;;147.60;71.50;;;;;;;-2.20;78.75;101742.64;214354;1274;143658;-74
2022/02/27 02:28:10;;;;;;;130.20;61.30;;;;;;;-2.20;78.52;101741.57;215089;1274;141981;-75
2022/02/27 02:33:14;;;;;;;109.20;57.20;;;;;;;-2.24;78.58;101740.60;214596;1274;476811;-70
2022/02/27 02:38:20;;;;;;;110.90;56.20;;;;;;;-2.25;78.47;101745.92;213122;1274;142030;-71
2022/02/27 02:43:24;;;;;;;128.40;60.70;;;;;;;-2.23;78.56;101745.30;214309;1272;142473;-75
2022/02/27 02:48:28;;;;;;;108.30;54.90;;;;;;;-2.22;78.74;101753.36;215169;1273;142610;-73
2022/02/27 02:53:37;;;;;;;99.50;52.20;;;;;;;-2.20;78.75;101754.84;213297;1274;143539;-73
2022/02/27 02:58:43;;;;;;;105.80;56.60;;;;;;;-2.19;78.87;101759.77;213897;1274;142511;-70
2022/02/27 03:03:48;;;;;;;112.90;55.50;;;;;;;-2.21;78.63;101760.25;212855;1274;142095;-67
2022/02/27 03:08:53;;;;;;;103.10;52.70;;;;;;;-2.21;78.71;101760.94;213599;1274;141919;-74
2022/02/27 03:14:00;;;;;;;108.20;54.80;;;;;;;-2.20;79.01;101758.79;213403;1274;141871;-72
2022/02/27 03:19:05;;;;;;;112.80;55.80;;;;;;;-2.14;79.29;101762.75;213937;1274;141228;-72
2022/02/27 03:24:10;;;;;;;107.90;52.30;;;;;;;-2.09;79.30;101770.27;213607;1274;141710;-72
2022/02/27 03:29:14;;;;;;;108.40;50.80;;;;;;;-2.03;79.53;101773.69;213211;1274;143685;-73
2022/02/27 03:34:19;;;;;;;78.10;39.10;;;;;;;-2.00;79.36;101782.56;213588;1274;142706;-73
2022/02/27 03:39:23;;;;;;;95.90;46.80;;;;;;;-2.01;79.35;101787.52;213977;1274;141728;-71
2022/02/27 03:44:27;;;;;;;102.00;55.80;;;;;;;-2.01;79.53;101790.45;213378;1274;142682;-72
2022/02/27 03:49:31;;;;;;;101.00;50.30;;;;;;;-1.92;79.89;101798.71;214053;1274;142021;-72
2022/02/27 03:54:35;;;;;;;79.30;39.60;;;;;;;-1.82;80.12;101804.83;214054;1274;140837;-73
2022/02/27 03:59:39;;;;;;;57.50;27.70;;;;;;;-1.68;80.60;101812.75;215115;1274;141413;-71
2022/02/27 04:04:46;;;;;;;60.20;35.20;;;;;;;-1.46;81.30;101815.78;214503;1274;140986;-67
2022/02/27 04:09:51;;;;;;;57.00;26.70;;;;;;;-1.26;81.31;101812.31;215098;1272;143987;-70
2022/02/27 04:14:57;;;;;;;45.00;24.40;;;;;;;-1.08;81.82;101814.81;214447;1274;141262;-73
2022/02/27 04:20:03;;;;;;;49.20;23.70;;;;;;;-0.89;81.97;101814.84;215869;1274;142513;-73
2022/02/27 04:25:07;;;;;;;45.20;24.30;;;;;;;-0.73;82.10;101817.52;215213;1277;141632;-76
2022/02/27 04:30:11;;;;;;;42.40;24.00;;;;;;;-0.60;82.00;101813.80;215868;1274;141238;-75
2022/02/27 04:35:16;;;;;;;38.70;20.10;;;;;;;-0.48;82.15;101813.45;215546;1274;141217;-67
2022/02/27 04:40:20;;;;;;;39.30;22.10;;;;;;;-0.38;82.14;101814.41;215431;1274;142085;-73
2022/02/27 04:45:28;;;;;;;38.20;22.40;;;;;;;-0.28;82.20;101814.95;213544;1274;141025;-72
2022/02/27 04:50:33;;;;;;;;;;;;;;;-0.22;82.18;101810.45;213708;1274;140416;-72
2022/02/27 04:55:37;;;;;;;38.40;21.30;;;;;;;-0.20;82.34;101806.64;216337;1274;126973;-68
2022/02/27 05:00:42;;;;;;;44.50;23.00;;;;;;;-0.14;82.29;101806.02;214586;1274;140381;-72
2022/02/27 05:05:47;;;;;;;45.70;23.40;;;;;;;-0.11;82.41;101810.64;213951;1274;140634;-73
2022/02/27 05:10:51;;;;;;;39.20;19.90;;;;;;;-0.06;82.41;101812.41;214342;1274;141837;-72
2022/02/27 05:15:56;;;;;;;42.40;22.20;;;;;;;-0.04;82.31;101814.89;213624;1274;141412;-73
2022/02/27 05:21:00;;;;;;;51.60;24.40;;;;;;;-0.01;82.55;101816.58;213670;1274;142646;-73
2022/02/27 05:26:04;;;;;;;41.30;21.10;;;;;;;-0.01;82.41;101823.69;214896;1274;141507;-73
2022/02/27 05:31:08;;;;;;;23.50;12.00;;;;;;;0.02;82.42;101824.17;213450;1274;141299;-73
2022/02/27 05:36:12;;;;;;;46.10;21.40;;;;;;;0.03;82.48;101826.39;213826;1274;142855;-73
2022/02/27 05:41:17;;;;;;;47.00;22.10;;;;;;;0.04;82.36;101833.49;215010;1274;142177;-74
2022/02/27 05:46:29;;;;;;;40.50;21.00;;;;;;;0.05;82.45;101839.14;214334;1274;141425;-75
2022/02/27 05:51:35;;;;;;;30.70;15.80;;;;;;;0.05;82.51;101845.61;214280;1274;141794;-75
2022/02/27 05:56:43;;;;;;;34.70;18.20;;;;;;;0.04;82.30;101848.70;214776;1274;140799;-75
2022/02/27 06:01:48;;;;;;;25.50;13.30;;;;;;;0.06;82.29;101852.71;214089;1274;142042;-71
2022/02/27 06:06:54;;;;;;;28.80;15.50;;;;;;;0.09;82.36;101858.84;214788;1274;141244;-74
2022/02/27 06:12:00;;;;;;;36.00;20.10;;;;;;;0.09;82.40;101861.41;215654;1274;141260;-75
2022/02/27 06:17:05;;;;;;;46.20;22.10;;;;;;;0.13;82.04;101867.73;215220;1274;142765;-76
2022/02/27 06:22:09;;;;;;;36.10;19.40;;;;;;;0.20;82.41;101873.85;215783;1274;140592;-75
2022/02/27 06:27:13;;;;;;;28.80;14.70;;;;;;;0.24;82.03;101879.52;215857;1274;141151;-74
2022/02/27 06:32:17;;;;;;;31.50;14.90;;;;;;;0.24;82.30;101882.63;215905;1274;142105;-74
2022/02/27 06:37:22;;;;;;;38.10;19.40;;;;;;;0.26;81.91;101884.45;216119;1274;142343;-74
2022/02/27 06:42:27;;;;;;;27.40;15.40;;;;;;;0.28;81.99;101888.10;214367;1274;141382;-73
2022/02/27 06:47:32;;;;;;;29.80;14.80;;;;;;;0.30;81.88;101888.98;215087;1274;142401;-73
2022/02/27 06:52:36;;;;;;;32.40;17.10;;;;;;;0.28;81.83;101892.98;213467;1274;142054;-72
2022/02/27 06:57:40;;;;;;;25.50;15.20;;;;;;;0.26;82.00;101889.88;214579;1274;140986;-72
2022/02/27 07:02:47;;;;;;;29.50;19.50;;;;;;;0.24;81.85;101896.13;214488;1274;141850;-73
2022/02/27 07:07:52;;;;;;;35.70;19.70;;;;;;;0.21;82.02;101893.67;214898;1274;140281;-74
2022/02/27 07:12:57;;;;;;;32.80;16.50;;;;;;;0.18;82.26;101894.50;214597;1276;142423;-72
2022/02/27 07:18:01;;;;;;;50.20;23.20;;;;;;;0.20;82.34;101895.73;213276;1274;141456;-74
2022/02/27 07:23:05;;;;;;;37.80;18.80;;;;;;;0.28;82.17;101906.87;214267;1274;142369;-72
2022/02/27 07:28:10;;;;;;;39.50;18.60;;;;;;;0.28;82.35;101907.56;213563;1274;141999;-73
2022/02/27 07:33:15;;;;;;;29.80;15.80;;;;;;;0.34;82.26;101907.58;213513;1274;142865;-73
2022/02/27 07:38:20;;;;;;;30.50;15.70;;;;;;;0.35;81.99;101909.11;213776;1274;141673;-71
2022/02/27 07:43:25;;;;;;;29.30;16.60;;;;;;;0.38;81.85;101913.60;214302;1274;142500;-72
2022/02/27 07:48:30;;;;;;;36.60;20.40;;;;;;;0.45;82.06;101915.01;213434;1274;142081;-73
2022/02/27 07:53:35;;;;;;;26.50;14.50;;;;;;;0.57;82.27;101913.53;215238;1274;140037;-72
2022/02/27 07:58:40;;;;;;;31.00;17.00;;;;;;;0.67;82.01;101921.89;214816;1274;141935;-72
2022/02/27 08:03:44;;;;;;;33.70;15.30;;;;;;;0.73;82.00;101926.51;214679;1274;141587;-72
2022/02/27 08:08:48;;;;;;;30.10;15.40;;;;;;;0.78;81.75;101931.92;215690;1274;141218;-72
2022/02/27 08:13:53;;;;;;;38.30;18.00;;;;;;;0.80;81.78;101925.96;214625;1274;141534;-72
2022/02/27 08:18:58;;;;;;;34.10;16.00;;;;;;;0.87;81.34;101927.16;215303;1274;140263;-70
2022/02/27 08:24:02;;;;;;;31.40;17.60;;;;;;;0.93;81.36;101922.98;215823;1274;209463;-73
2022/02/27 08:29:11;;;;;;;33.90;19.90;;;;;;;1.06;81.47;101922.69;215769;1273;151027;-73
2022/02/27 08:34:15;;;;;;;35.70;21.90;;;;;;;1.16;81.39;101922.84;215853;1274;140549;-70
2022/02/27 08:39:19;;;;;;;37.80;17.30;;;;;;;1.23;80.90;101925.56;214904;1274;142471;-73
2022/02/27 08:44:23;;;;;;;43.90;21.20;;;;;;;1.19;80.69;101926.60;214855;1274;140576;-72
2022/02/27 08:49:27;;;;;;;44.50;21.30;;;;;;;1.15;80.64;101925.19;214788;1274;140064;-74
2022/02/27 08:54:30;;;;;;;48.30;23.30;;;;;;;1.10;80.65;101927.02;214252;1276;140665;-73
2022/02/27 08:59:34;;;;;;;39.80;21.90;;;;;;;1.04;80.92;101932.35;213667;1272;140860;-72
2022/02/27 09:04:39;;;;;;;40.10;20.20;;;;;;;1.04;80.93;101931.42;214086;1274;141093;-71
2022/02/27 09:09:43;;;;;;;41.60;19.40;;;;;;;1.01;80.70;101930.58;214151;1274;141384;-66
2022/02/27 09:14:47;;;;;;;34.80;17.30;;;;;;;0.99;80.86;101933.06;213582;1274;140489;-72
2022/02/27 09:19:56;;;;;;;23.20;11.50;;;;;;;0.94;80.87;101933.27;214216;1274;140289;-71
2022/02/27 09:25:04;;;;;;;24.30;13.60;;;;;;;0.94;80.76;101935.86;214015;1274;232845;-71
2022/02/27 09:30:22;;;;;;;31.70;16.30;;;;;;;0.89;80.13;101931.06;213651;1274;140923;-71
2022/02/27 09:35:28;;;;;;;34.90;15.90;;;;;;;0.92;80.83;101932.20;214021;1274;140498;-71
2022/02/27 09:40:32;;;;;;;29.10;15.10;;;;;;;0.99;81.12;101934.09;213088;1274;140394;-70
2022/02/27 09:45:36;;;;;;;25.80;12.70;;;;;;;0.95;80.49;101929.65;214868;1274;140758;-72
2022/02/27 09:50:41;;;;;;;26.60;15.00;;;;;;;0.91;80.47;101921.92;214677;1274;141998;-72
2022/02/27 09:55:45;;;;;;;31.40;15.90;;;;;;;0.99;80.68;101922.20;213484;1274;140508;-68
2022/02/27 10:00:49;;;;;;;31.50;16.80;;;;;;;1.13;81.22;101916.04;214622;1274;141402;-72
2022/02/27 10:06:05;;;;;;;28.30;13.90;;;;;;;1.28;80.79;101913.27;214032;1274;141317;-70
2022/02/27 10:11:17;;;;;;;29.50;18.60;;;;;;;1.37;80.65;101904.85;214338;1274;141477;-72
2022/02/27 10:16:25;;;;;;;36.40;17.00;;;;;;;1.49;80.68;101903.39;214040;1276;140822;-71
2022/02/27 10:21:30;;;;;;;34.40;17.00;;;;;;;1.65;80.95;101898.50;215128;1274;141001;-72
2022/02/27 10:26:54;;;;;;;34.90;19.80;;;;;;;1.83;80.46;101891.10;214797;1274;140749;-72
2022/02/27 10:31:58;;;;;;;42.10;20.10;;;;;;;1.93;80.14;101887.26;215655;1274;140505;-73
2022/02/27 10:37:09;;;;;;;;;;;;;;;2.09;80.01;101878.95;215814;1274;141876;-72
2022/02/27 10:42:21;;;;;;;23.80;14.30;;;;;;;2.29;80.15;101876.53;216553;1274;127528;-72
2022/02/27 10:47:30;;;;;;;37.00;19.00;;;;;;;2.47;79.89;101873.98;214750;1274;142892;-70
2022/02/27 10:52:37;;;;;;;41.90;22.10;;;;;;;2.54;79.39;101868.66;215360;1274;142929;-72
2022/02/27 10:57:50;;;;;;;36.60;17.80;;;;;;;2.64;79.77;101865.52;214201;1274;140642;-71
2022/02/27 11:03:10;;;;;;;32.30;17.10;;;;;;;2.74;79.24;101868.14;214871;1274;220641;-70
2022/02/27 11:08:15;;;;;;;25.70;13.80;;;;;;;2.75;79.29;101866.34;215312;1274;140903;-71
2022/02/27 11:13:22;;;;;;;23.50;13.90;;;;;;;2.86;78.92;101864.13;214417;1272;141328;-71
2022/02/27 11:18:32;;;;;;;21.20;12.10;;;;;;;2.98;79.07;101866.38;214631;1274;140688;-71
2022/02/27 11:23:37;;;;;;;27.70;14.30;;;;;;;3.04;78.58;101866.04;214581;1274;142176;-71
2022/02/27 11:28:43;;;;;;;25.90;12.60;;;;;;;3.14;78.59;101863.78;214006;1274;140493;-72
2022/02/27 11:33:48;;;;;;;21.20;13.80;;;;;;;3.14;78.14;101869.91;213881;1274;142036;-71
2022/02/27 11:44:38;;;;;;;25.10;13.30;;;;;;;2.97;77.72;101858.09;214254;1274;140615;-74
2022/02/27 11:49:46;;;;;;;20.00;10.20;;;;;;;2.89;77.83;101855.05;213064;1274;141268;-72
2022/02/27 11:54:52;;;;;;;22.40;12.30;;;;;;;2.86;77.84;101851.98;214455;1274;141649;-73
2022/02/27 12:00:03;;;;;;;21.60;13.80;;;;;;;2.90;77.88;101849.23;213655;1275;140513;-72
2022/02/27 12:05:14;;;;;;;24.00;11.90;;;;;;;3.03;78.36;101845.42;213523;1274;151187;-74
2022/02/27 12:10:38;;;;;;;26.00;13.70;;;;;;;3.10;78.05;101846.21;215437;1274;140773;-73
2022/02/27 12:15:42;;;;;;;23.60;13.70;;;;;;;3.18;77.70;101845.38;213015;1274;141026;-71
2022/02/27 12:20:50;;;;;;;17.00;11.40;;;;;;;3.25;77.58;101834.33;213993;1274;140984;-73
2022/02/27 12:25:58;;;;;;;14.60;10.40;;;;;;;3.33;77.59;101834.80;215889;1274;141843;-72
2022/02/27 12:31:03;;;;;;;16.80;10.90;;;;;;;3.37;77.18;101828.70;213908;1274;140841;-72
2022/02/27 12:36:07;;;;;;;21.40;13.10;;;;;;;3.36;77.16;101827.20;215942;1274;141735;-72
2022/02/27 12:41:16;;;;;;;17.20;9.30;;;;;;;3.35;77.34;101830.86;215227;1274;141680;-73
2022/02/27 12:46:21;;;;;;;21.00;11.20;;;;;;;3.35;76.83;101828.34;215894;1274;141912;-73
2022/02/27 12:51:26;;;;;;;15.20;9.70;;;;;;;3.32;76.60;101833.52;214767;1274;141441;-72
2022/02/27 12:56:31;;;;;;;20.70;10.80;;;;;;;3.29;76.64;101836.48;215248;1273;142265;-72
2022/02/27 13:01:36;;;;;;;21.40;12.60;;;;;;;3.33;76.42;101828.52;215449;1274;141214;-73
2022/02/27 13:06:40;;;;;;;18.90;12.40;;;;;;;3.45;76.41;101827.43;214164;1274;142045;-72
2022/02/27 13:11:46;;;;;;;18.10;10.90;;;;;;;3.65;76.24;101824.59;215421;1274;142175;-73
2022/02/27 13:16:53;;;;;;;16.60;10.20;;;;;;;3.76;75.78;101817.59;213153;1276;140657;-72
2022/02/27 13:22:02;;;;;;;17.20;12.50;;;;;;;3.84;75.59;101809.65;214376;1275;141784;-72
2022/02/27 13:27:10;;;;;;;17.50;10.70;;;;;;;4.04;75.67;101808.45;213542;1274;141356;-69
2022/02/27 13:32:23;;;;;;;18.00;12.10;;;;;;;4.14;75.12;101803.85;213983;1274;142895;-73
2022/02/27 13:37:32;;;;;;;19.50;11.90;;;;;;;3.98;74.82;101805.39;214024;1274;141949;-73
2022/02/27 13:42:37;;;;;;;21.10;11.40;;;;;;;3.97;74.99;101806.83;214368;1276;140379;-73
2022/02/27 13:47:48;;;;;;;21.30;11.20;;;;;;;4.20;74.93;101796.95;213604;1275;140877;-72
2022/02/27 13:53:13;;;;;;;16.50;9.20;;;;;;;4.29;74.62;101789.94;214290;1274;140990;-69
2022/02/27 13:58:24;;;;;;;17.80;10.60;;;;;;;4.49;74.22;101783.38;213333;1274;142101;-74
2022/02/27 14:03:36;;;;;;;16.80;11.00;;;;;;;4.74;74.19;101775.47;213707;1274;141860;-75
2022/02/27 14:08:43;;;;;;;23.20;12.80;;;;;;;5.02;74.05;101762.86;214445;1274;141113;-72
2022/02/27 14:13:54;;;;;;;17.00;10.10;;;;;;;5.24;73.76;101754.92;214374;1275;140798;-71
2022/02/27 14:19:00;;;;;;;14.50;9.30;;;;;;;5.25;72.92;101750.41;213975;1275;140834;-70
2022/02/27 14:24:10;;;;;;;18.10;10.80;;;;;;;5.01;72.75;101738.86;214775;1275;141104;-71
2022/02/27 14:29:15;;;;;;;19.20;12.80;;;;;;;4.80;72.83;101739.17;214575;1275;312373;-76
2022/02/27 14:34:21;;;;;;;20.90;12.20;;;;;;;4.65;72.92;101737.08;214278;1274;140826;-69
2022/02/27 14:39:31;;;;;;;16.00;12.10;;;;;;;4.54;72.84;101737.93;213801;1276;142543;-72
2022/02/27 14:44:35;;;;;;;18.20;11.20;;;;;;;4.44;72.86;101737.33;215825;1274;141032;-72
2022/02/27 14:49:38;;;;;;;20.00;11.50;;;;;;;4.34;72.71;101734.55;216030;1274;141946;-72
2022/02/27 14:54:42;;;;;;;13.80;10.10;;;;;;;4.25;72.78;101732.27;215651;1275;141339;-76
2022/02/27 14:59:45;;;;;;;15.90;11.80;;;;;;;4.16;72.68;101726.61;214633;1276;141757;-75
2022/02/27 15:04:49;;;;;;;14.60;11.30;;;;;;;4.15;72.93;101727.58;215372;1274;141513;-74
2022/02/27 15:09:53;;;;;;;15.50;11.40;;;;;;;4.15;72.78;101727.55;215495;1274;141679;-74
2022/02/27 15:14:57;;;;;;;20.40;13.50;;;;;;;4.16;72.86;101728.23;214509;1274;141834;-72
2022/02/27 15:20:04;;;;;;;;;;;;;;;4.06;72.62;101733.55;214575;1274;140305;-72
2022/02/27 15:25:09;;;;;;;16.10;9.60;;;;;;;3.95;72.84;101733.67;214869;1274;127991;-71
2022/02/27 15:30:15;;;;;;;10.50;8.00;;;;;;;3.80;72.21;101735.95;213918;1274;141115;-71
2022/02/27 15:35:18;;;;;;;17.90;12.30;;;;;;;3.59;72.17;101741.58;214337;1274;140153;-73
2022/02/27 15:40:23;;;;;;;25.00;10.30;;;;;;;3.46;72.25;101744.02;214455;1274;140931;-72
2022/02/27 15:45:28;;;;;;;22.30;12.70;;;;;;;3.34;72.46;101745.27;214396;1274;141117;-72
2022/02/27 15:50:34;;;;;;;23.80;13.50;;;;;;;3.25;72.39;101747.70;214181;1274;142509;-73
2022/02/27 15:55:38;;;;;;;28.50;17.20;;;;;;;3.17;72.72;101749.85;213603;1274;140404;-73
2022/02/27 16:00:41;;;;;;;21.40;11.70;;;;;;;3.09;72.90;101751.65;213641;1274;140662;-72
2022/02/27 16:05:46;;;;;;;24.30;14.40;;;;;;;2.97;72.59;101752.34;212641;1274;141019;-68
2022/02/27 16:10:50;;;;;;;18.30;12.70;;;;;;;2.83;72.68;101753.21;214739;1274;141249;-74
2022/02/27 16:15:56;;;;;;;20.30;13.00;;;;;;;2.68;72.58;101755.27;212933;1274;140687;-73
2022/02/27 16:21:01;;;;;;;15.70;10.30;;;;;;;2.57;72.61;101753.95;214264;1274;140734;-75
2022/02/27 16:26:06;;;;;;;18.70;10.50;;;;;;;2.44;72.87;101758.25;214191;1274;141409;-73
2022/02/27 16:31:12;;;;;;;22.50;14.10;;;;;;;2.27;72.61;101758.07;214051;1273;140996;-72
2022/02/27 16:36:17;;;;;;;30.80;15.70;;;;;;;2.08;72.60;101768.36;216029;1274;140265;-71
2022/02/27 16:41:22;;;;;;;36.90;19.20;;;;;;;1.92;72.53;101772.16;215401;1274;140953;-70
2022/02/27 16:46:31;;;;;;;37.60;21.40;;;;;;;1.78;72.44;101769.70;215440;1274;142654;-73
2022/02/27 16:51:36;;;;;;;26.30;15.40;;;;;;;1.63;72.58;101776.89;215886;1274;140820;-73
2022/02/27 16:56:41;;;;;;;24.30;14.60;;;;;;;1.44;72.38;101782.65;215916;1274;141738;-73
2022/02/27 17:01:46;;;;;;;22.20;12.60;;;;;;;1.25;72.39;101780.54;215756;1274;153992;-74
2022/02/27 17:06:51;;;;;;;17.80;11.70;;;;;;;1.05;72.09;101778.48;215203;1274;141653;-74
2022/02/27 17:11:58;;;;;;;17.80;11.00;;;;;;;0.83;72.28;101776.95;214888;1274;142068;-73
2022/02/27 17:17:07;;;;;;;19.20;11.40;;;;;;;0.63;72.25;101776.23;214062;1276;141680;-75
2022/02/27 17:22:11;;;;;;;14.20;9.90;;;;;;;0.45;72.34;101776.25;213888;1276;140611;-74
2022/02/27 17:27:16;;;;;;;19.60;12.50;;;;;;;0.31;72.79;101773.72;215051;1274;140858;-75
2022/02/27 17:32:24;;;;;;;35.80;18.10;;;;;;;0.17;72.75;101769.76;214777;1274;144203;-73
2022/02/27 17:37:31;;;;;;;60.00;28.80;;;;;;;-0.01;72.92;101764.98;213276;1274;142648;-73
2022/02/27 17:42:36;;;;;;;123.00;48.40;;;;;;;-0.22;72.97;101759.81;214148;1274;140606;-75
2022/02/27 17:47:43;;;;;;;66.40;32.90;;;;;;;-0.47;73.13;101757.95;213832;1274;141937;-71
2022/02/27 17:52:48;;;;;;;77.60;34.30;;;;;;;-0.70;73.40;101754.43;213505;1274;141313;-72
2022/02/27 17:57:53;;;;;;;82.90;36.80;;;;;;;-0.81;73.75;101750.87;214244;1274;141787;-69
2022/02/27 18:02:58;;;;;;;66.20;33.00;;;;;;;-0.86;74.05;101751.61;214006;1274;141870;-70
2022/02/27 18:08:02;;;;;;;66.90;32.30;;;;;;;-0.92;74.15;101747.34;214200;1274;141143;-67
2022/02/27 18:13:06;;;;;;;44.80;22.90;;;;;;;-1.00;73.96;101748.84;213849;1274;143912;-71
2022/02/27 18:18:11;;;;;;;47.40;23.40;;;;;;;-1.16;74.02;101757.45;213276;1274;141017;-68
2022/02/27 18:23:15;;;;;;;32.50;17.30;;;;;;;-1.26;74.40;101752.79;213728;1274;142286;-69
2022/02/27 18:28:21;;;;;;;33.30;16.10;;;;;;;-1.32;74.59;101753.23;214297;1274;140373;-70
2022/02/27 18:33:28;;;;;;;;;;;;;;;-1.40;74.66;101752.23;213569;1276;140495;-66
2022/02/27 18:38:33;;;;;;;17.00;12.00;;;;;;;-1.52;74.69;101747.27;214157;1274;126710;-75
2022/02/27 18:43:36;;;;;;;22.20;13.50;;;;;;;-1.58;74.84;101742.89;215319;1276;141329;-76
2022/02/27 18:48:41;;;;;;;23.20;13.10;;;;;;;-1.64;74.75;101740.16;215513;1275;141394;-74
2022/02/27 18:53:48;;;;;;;;;;;;;;;-1.70;74.76;101742.97;215266;1276;141717;-76
2022/02/27 18:58:53;;;;;;;20.40;12.20;;;;;;;-1.73;75.10;101741.60;215656;1274;126470;-75
2022/02/27 19:03:58;;;;;;;19.00;12.40;;;;;;;-1.72;75.20;101737.86;215837;1275;141126;-70
2022/02/27 19:09:04;;;;;;;17.00;12.00;;;;;;;-1.72;75.21;101736.27;215017;1277;141488;-69
2022/02/27 19:14:09;;;;;;;25.10;13.10;;;;;;;-1.66;75.30;101738.05;215441;1275;141456;-69
2022/02/27 19:19:14;;;;;;;22.20;10.10;;;;;;;-1.60;75.24;101744.02;213519;1274;143885;-66
2022/02/27 19:24:23;;;;;;;18.60;10.80;;;;;;;-1.57;75.20;101745.97;214457;1274;143890;-73
2022/02/27 19:29:30;;;;;;;28.70;12.30;;;;;;;-1.57;75.14;101746.30;214723;1274;141008;-73
2022/02/27 19:34:36;;;;;;;16.70;9.40;;;;;;;-1.62;75.08;101737.75;213882;1274;140607;-69
2022/02/27 19:39:40;;;;;;;19.00;10.40;;;;;;;-1.68;75.05;101734.47;213697;1274;139730;-69
2022/02/27 19:44:47;;;;;;;22.40;11.10;;;;;;;-1.74;75.12;101733.30;214416;1274;140577;-70
2022/02/27 19:49:51;;;;;;;11.10;8.70;;;;;;;-1.79;74.99;101727.77;215059;1274;140562;-71
2022/02/27 19:54:57;;;;;;;18.60;9.40;;;;;;;-1.82;75.25;101729.70;213639;1274;141316;-70
2022/02/27 20:00:04;;;;;;;20.60;10.40;;;;;;;-1.79;75.44;101729.66;213562;1274;140403;-68
2022/02/27 20:05:11;;;;;;;17.50;9.40;;;;;;;-1.77;75.70;101731.44;214087;1274;140980;-66
2022/02/27 20:15:42;;;;;;;25.60;11.00;;;;;;;-1.82;75.51;101730.07;213927;1274;140216;-70
2022/02/27 20:20:50;;;;;;;32.80;16.10;;;;;;;-1.84;75.47;101731.95;214730;1274;142199;-75
2022/02/27 20:25:56;;;;;;;29.00;14.30;;;;;;;-1.81;75.58;101733.63;213697;1274;142586;-71
2022/02/27 20:31:02;;;;;;;28.80;13.30;;;;;;;-1.78;75.60;101734.80;214003;1274;141490;-70
2022/02/27 20:36:08;;;;;;;28.40;13.40;;;;;;;-1.82;75.50;101729.69;215200;1274;140186;-71
2022/02/27 20:41:14;;;;;;;26.00;14.30;;;;;;;-1.84;75.54;101731.92;214837;1274;143061;-70
2022/02/27 20:46:18;;;;;;;23.20;11.00;;;;;;;-1.90;75.27;101739.47;215734;1274;141553;-72
2022/02/27 20:51:24;;;;;;;22.70;12.10;;;;;;;-1.90;75.52;101739.52;214877;1274;141535;-73
2022/02/27 20:56:29;;;;;;;26.30;10.30;;;;;;;-1.86;75.39;101738.87;215656;1274;143411;-73
2022/02/27 21:01:34;;;;;;;24.00;12.00;;;;;;;-1.78;75.28;101741.05;216127;1274;141009;-74
2022/02/27 21:06:39;;;;;;;22.60;11.60;;;;;;;-1.73;75.21;101743.02;216116;1274;140368;-75
2022/02/27 21:11:43;;;;;;;21.00;11.30;;;;;;;-1.74;75.17;101739.39;216143;1274;140050;-77
2022/02/27 21:16:48;;;;;;;20.80;11.20;;;;;;;-1.76;75.04;101742.69;216033;1274;140435;-75
2022/02/27 21:21:53;;;;;;;17.70;10.70;;;;;;;-1.81;74.99;101747.19;215828;1272;139846;-73
2022/02/27 21:26:58;;;;;;;26.30;12.30;;;;;;;-1.85;75.00;101746.98;214228;1274;140499;-70
2022/02/27 21:32:03;;;;;;;20.80;9.80;;;;;;;-1.88;75.10;101747.78;214993;1274;223454;-70
2022/02/27 21:37:08;;;;;;;16.70;9.90;;;;;;;-1.91;75.14;101745.52;213350;1274;141932;-72
2022/02/27 21:42:12;;;;;;;17.80;10.70;;;;;;;-1.90;75.19;101742.47;214574;1274;140073;-71
2022/02/27 21:47:17;;;;;;;22.70;10.10;;;;;;;-1.90;75.25;101741.41;213683;1274;140159;-73
2022/02/27 21:52:24;;;;;;;18.50;9.40;;;;;;;-1.92;75.10;101734.21;213823;1274;140408;-73
2022/02/27 21:57:29;;;;;;;18.50;9.10;;;;;;;-1.99;75.12;101742.23;214039;1274;139977;-73
2022/02/27 22:02:33;;;;;;;16.80;8.40;;;;;;;-2.05;75.15;101740.52;214440;1274;237304;-74
2022/02/27 22:07:37;;;;;;;16.10;8.80;;;;;;;-2.09;75.22;101737.80;213395;1276;141510;-74
2022/02/27 22:12:42;;;;;;;17.40;10.30;;;;;;;-2.11;75.22;101734.47;214010;1274;139942;-73
2022/02/27 22:17:46;;;;;;;23.30;11.90;;;;;;;-2.17;75.09;101741.02;214064;1274;139604;-72
2022/02/27 22:22:50;;;;;;;24.20;10.40;;;;;;;-2.22;75.33;101742.42;214351;1274;140945;-70
2022/02/27 22:27:55;;;;;;;22.10;11.30;;;;;;;-2.27;75.42;101743.24;214190;1274;140587;-69
2022/02/27 22:32:59;;;;;;;19.80;10.40;;;;;;;-2.34;75.32;101741.48;213704;1274;139689;-72
2022/02/27 22:38:04;;;;;;;19.50;10.10;;;;;;;-2.38;75.42;101740.83;214954;1272;162843;-69
2022/02/27 22:43:08;;;;;;;19.50;10.30;;;;;;;-2.36;75.51;101740.21;214641;1274;143375;-70
2022/02/27 22:48:11;;;;;;;20.40;11.10;;;;;;;-2.38;75.34;101741.16;215008;1274;142865;-73
2022/02/27 22:53:15;;;;;;;25.80;11.80;;;;;;;-2.41;75.42;101741.75;214786;1274;141392;-72
2022/02/27 22:58:22;;;;;;;27.90;12.00;;;;;;;-2.43;75.26;101738.38;215844;1273;142361;-73